sensor_id;sensor_type;location;lat;lon;timestamp;P1;durP1;ratioP1;P2;durP2;ratioP2
70313;SDS011;71040;47.526;18.986;2024-03-02T00:04:01;9.40;;;7.17;;
70313;SDS011;71040;47.526;18.986;2024-03-02T00:09:04;9.27;;;6.95;;
70313;SDS011;71040;47.526;18.986;2024-03-02T00:14:10;10.88;;;7.85;;
70313;SDS011;71040;47.526;18.986;2024-03-02T00:19:10;9.77;;;7.40;;
70313;SDS011;71040;47.526;18.986;2024-03-02T00:24:18;11.13;;;8.02;;
70313;SDS011;71040;47.526;18.986;2024-03-02T00:29:21;10.32;;;7.07;;
70313;SDS011;71040;47.526;18.986;2024-03-02T00:34:22;11.97;;;7.97;;
70313;SDS011;71040;47.526;18.986;2024-03-02T00:39:22;10.18;;;7.70;;
70313;SDS011;71040;47.526;18.986;2024-03-02T00:44:25;10.18;;;7.30;;
70313;SDS011;71040;47.526;18.986;2024-03-02T00:49:35;10.43;;;8.20;;
70313;SDS011;71040;47.526;18.986;2024-03-02T00:54:35;10.87;;;7.70;;
70313;SDS011;71040;47.526;18.986;2024-03-02T00:59:41;11.82;;;8.55;;
70313;SDS011;71040;47.526;18.986;2024-03-02T01:04:41;12.13;;;8.40;;
70313;SDS011;71040;47.526;18.986;2024-03-02T01:09:41;14.17;;;8.57;;
70313;SDS011;71040;47.526;18.986;2024-03-02T01:14:42;11.20;;;7.67;;
70313;SDS011;71040;47.526;18.986;2024-03-02T01:19:42;11.50;;;8.27;;
70313;SDS011;71040;47.526;18.986;2024-03-02T01:24:45;12.13;;;7.80;;
70313;SDS011;71040;47.526;18.986;2024-03-02T01:29:48;12.30;;;7.68;;
70313;SDS011;71040;47.526;18.986;2024-03-02T01:34:48;10.75;;;7.97;;
70313;SDS011;71040;47.526;18.986;2024-03-02T01:39:49;11.63;;;8.40;;
70313;SDS011;71040;47.526;18.986;2024-03-02T01:44:51;12.65;;;8.15;;
70313;SDS011;71040;47.526;18.986;2024-03-02T01:49:54;12.13;;;8.55;;
70313;SDS011;71040;47.526;18.986;2024-03-02T01:54:55;14.23;;;9.43;;
70313;SDS011;71040;47.526;18.986;2024-03-02T02:00:04;11.77;;;8.35;;
70313;SDS011;71040;47.526;18.986;2024-03-02T02:05:17;10.32;;;8.18;;
70313;SDS011;71040;47.526;18.986;2024-03-02T02:10:24;12.25;;;8.60;;
70313;SDS011;71040;47.526;18.986;2024-03-02T02:15:28;11.23;;;8.82;;
70313;SDS011;71040;47.526;18.986;2024-03-02T02:20:29;13.00;;;9.10;;
70313;SDS011;71040;47.526;18.986;2024-03-02T02:25:29;12.43;;;8.73;;
70313;SDS011;71040;47.526;18.986;2024-03-02T02:30:33;12.82;;;8.65;;
70313;SDS011;71040;47.526;18.986;2024-03-02T02:35:36;11.35;;;8.23;;
70313;SDS011;71040;47.526;18.986;2024-03-02T02:40:39;13.17;;;9.20;;
70313;SDS011;71040;47.526;18.986;2024-03-02T02:45:42;12.38;;;9.32;;
70313;SDS011;71040;47.526;18.986;2024-03-02T02:50:47;12.00;;;8.85;;
70313;SDS011;71040;47.526;18.986;2024-03-02T02:55:47;12.93;;;9.65;;
70313;SDS011;71040;47.526;18.986;2024-03-02T03:00:48;13.15;;;8.52;;
70313;SDS011;71040;47.526;18.986;2024-03-02T03:05:51;11.63;;;8.25;;
70313;SDS011;71040;47.526;18.986;2024-03-02T03:10:51;15.30;;;9.73;;
70313;SDS011;71040;47.526;18.986;2024-03-02T03:16:00;12.70;;;9.43;;
70313;SDS011;71040;47.526;18.986;2024-03-02T03:21:01;12.77;;;9.23;;
70313;SDS011;71040;47.526;18.986;2024-03-02T03:26:03;12.68;;;9.45;;
70313;SDS011;71040;47.526;18.986;2024-03-02T03:31:04;11.68;;;8.80;;
70313;SDS011;71040;47.526;18.986;2024-03-02T03:36:04;13.00;;;9.40;;
70313;SDS011;71040;47.526;18.986;2024-03-02T03:41:07;12.75;;;10.02;;
70313;SDS011;71040;47.526;18.986;2024-03-02T03:46:07;12.10;;;8.57;;
70313;SDS011;71040;47.526;18.986;2024-03-02T03:51:08;13.33;;;8.40;;
70313;SDS011;71040;47.526;18.986;2024-03-02T03:56:08;13.03;;;9.10;;
70313;SDS011;71040;47.526;18.986;2024-03-02T04:01:11;13.18;;;9.27;;
70313;SDS011;71040;47.526;18.986;2024-03-02T04:06:11;12.93;;;9.80;;
70313;SDS011;71040;47.526;18.986;2024-03-02T04:11:11;13.97;;;9.43;;
70313;SDS011;71040;47.526;18.986;2024-03-02T04:16:12;12.70;;;9.03;;
70313;SDS011;71040;47.526;18.986;2024-03-02T04:21:14;14.15;;;9.93;;
70313;SDS011;71040;47.526;18.986;2024-03-02T04:26:15;12.43;;;9.00;;
70313;SDS011;71040;47.526;18.986;2024-03-02T04:31:22;12.38;;;9.35;;
70313;SDS011;71040;47.526;18.986;2024-03-02T04:36:24;13.10;;;9.57;;
70313;SDS011;71040;47.526;18.986;2024-03-02T04:41:27;12.37;;;8.93;;
70313;SDS011;71040;47.526;18.986;2024-03-02T04:46:28;12.93;;;9.00;;
70313;SDS011;71040;47.526;18.986;2024-03-02T04:51:31;14.05;;;10.52;;
70313;SDS011;71040;47.526;18.986;2024-03-02T04:56:31;14.23;;;10.53;;
70313;SDS011;71040;47.526;18.986;2024-03-02T05:01:32;11.80;;;9.17;;
70313;SDS011;71040;47.526;18.986;2024-03-02T05:06:33;12.93;;;9.65;;
70313;SDS011;71040;47.526;18.986;2024-03-02T05:11:34;13.23;;;9.63;;
70313;SDS011;71040;47.526;18.986;2024-03-02T05:16:37;13.27;;;9.82;;
70313;SDS011;71040;47.526;18.986;2024-03-02T05:21:43;12.77;;;9.88;;
70313;SDS011;71040;47.526;18.986;2024-03-02T05:26:46;12.07;;;8.57;;
70313;SDS011;71040;47.526;18.986;2024-03-02T05:31:47;14.57;;;10.13;;
70313;SDS011;71040;47.526;18.986;2024-03-02T05:36:48;13.93;;;9.30;;
70313;SDS011;71040;47.526;18.986;2024-03-02T05:41:50;13.33;;;9.60;;
70313;SDS011;71040;47.526;18.986;2024-03-02T05:46:53;12.07;;;9.40;;
70313;SDS011;71040;47.526;18.986;2024-03-02T05:51:54;13.13;;;9.50;;
70313;SDS011;71040;47.526;18.986;2024-03-02T05:56:54;13.17;;;9.40;;
70313;SDS011;71040;47.526;18.986;2024-03-02T06:01:57;13.85;;;9.88;;
70313;SDS011;71040;47.526;18.986;2024-03-02T06:06:57;13.13;;;9.47;;
70313;SDS011;71040;47.526;18.986;2024-03-02T06:11:57;14.57;;;10.32;;
70313;SDS011;71040;47.526;18.986;2024-03-02T06:17:00;13.73;;;9.53;;
70313;SDS011;71040;47.526;18.986;2024-03-02T06:22:04;12.57;;;9.35;;
70313;SDS011;71040;47.526;18.986;2024-03-02T06:27:06;13.80;;;10.23;;
70313;SDS011;71040;47.526;18.986;2024-03-02T06:32:07;13.65;;;9.90;;
70313;SDS011;71040;47.526;18.986;2024-03-02T06:37:07;13.40;;;9.60;;
70313;SDS011;71040;47.526;18.986;2024-03-02T06:42:10;13.10;;;9.27;;
70313;SDS011;71040;47.526;18.986;2024-03-02T06:47:10;13.87;;;9.93;;
70313;SDS011;71040;47.526;18.986;2024-03-02T06:52:11;12.13;;;8.98;;
70313;SDS011;71040;47.526;18.986;2024-03-02T06:57:14;14.23;;;10.80;;
70313;SDS011;71040;47.526;18.986;2024-03-02T07:02:23;13.77;;;10.13;;
70313;SDS011;71040;47.526;18.986;2024-03-02T07:07:24;15.10;;;10.50;;
70313;SDS011;71040;47.526;18.986;2024-03-02T07:12:26;14.23;;;10.43;;
70313;SDS011;71040;47.526;18.986;2024-03-02T07:17:30;15.25;;;10.20;;
70313;SDS011;71040;47.526;18.986;2024-03-02T07:22:31;14.93;;;10.63;;
70313;SDS011;71040;47.526;18.986;2024-03-02T07:27:33;15.57;;;10.65;;
70313;SDS011;71040;47.526;18.986;2024-03-02T07:32:35;13.98;;;9.90;;
70313;SDS011;71040;47.526;18.986;2024-03-02T07:37:35;13.90;;;9.37;;
70313;SDS011;71040;47.526;18.986;2024-03-02T07:42:36;13.30;;;10.07;;
70313;SDS011;71040;47.526;18.986;2024-03-02T07:47:36;13.63;;;9.98;;
70313;SDS011;71040;47.526;18.986;2024-03-02T07:52:37;15.02;;;10.05;;
70313;SDS011;71040;47.526;18.986;2024-03-02T07:57:42;15.27;;;10.73;;
70313;SDS011;71040;47.526;18.986;2024-03-02T08:02:45;12.32;;;9.88;;
70313;SDS011;71040;47.526;18.986;2024-03-02T08:07:48;13.35;;;10.10;;
70313;SDS011;71040;47.526;18.986;2024-03-02T08:12:56;13.93;;;9.85;;
70313;SDS011;71040;47.526;18.986;2024-03-02T08:17:59;14.40;;;10.68;;
70313;SDS011;71040;47.526;18.986;2024-03-02T08:23:01;14.07;;;10.38;;
70313;SDS011;71040;47.526;18.986;2024-03-02T08:28:04;13.10;;;9.65;;
70313;SDS011;71040;47.526;18.986;2024-03-02T08:33:07;15.23;;;10.57;;
70313;SDS011;71040;47.526;18.986;2024-03-02T08:38:08;14.85;;;9.98;;
70313;SDS011;71040;47.526;18.986;2024-03-02T08:43:10;13.65;;;9.55;;
70313;SDS011;71040;47.526;18.986;2024-03-02T08:48:11;12.75;;;9.32;;
70313;SDS011;71040;47.526;18.986;2024-03-02T08:53:14;14.23;;;10.25;;
70313;SDS011;71040;47.526;18.986;2024-03-02T08:58:18;13.00;;;9.52;;
70313;SDS011;71040;47.526;18.986;2024-03-02T09:03:21;13.75;;;9.95;;
70313;SDS011;71040;47.526;18.986;2024-03-02T09:08:24;13.90;;;10.00;;
70313;SDS011;71040;47.526;18.986;2024-03-02T09:13:24;14.80;;;10.20;;
70313;SDS011;71040;47.526;18.986;2024-03-02T09:18:25;13.37;;;9.47;;
70313;SDS011;71040;47.526;18.986;2024-03-02T09:23:25;12.57;;;9.17;;
70313;SDS011;71040;47.526;18.986;2024-03-02T09:28:28;13.70;;;9.45;;
70313;SDS011;71040;47.526;18.986;2024-03-02T09:33:29;12.57;;;9.70;;
70313;SDS011;71040;47.526;18.986;2024-03-02T09:38:34;12.57;;;9.20;;
70313;SDS011;71040;47.526;18.986;2024-03-02T09:43:34;13.48;;;9.88;;
70313;SDS011;71040;47.526;18.986;2024-03-02T09:48:37;11.68;;;10.00;;
70313;SDS011;71040;47.526;18.986;2024-03-02T09:53:38;12.07;;;9.02;;
70313;SDS011;71040;47.526;18.986;2024-03-02T09:58:39;11.80;;;8.35;;
70313;SDS011;71040;47.526;18.986;2024-03-02T10:03:40;12.55;;;9.35;;
70313;SDS011;71040;47.526;18.986;2024-03-02T10:08:44;11.23;;;9.00;;
70313;SDS011;71040;47.526;18.986;2024-03-02T10:13:48;11.43;;;8.77;;
70313;SDS011;71040;47.526;18.986;2024-03-02T10:18:51;12.82;;;9.70;;
70313;SDS011;71040;47.526;18.986;2024-03-02T10:24:06;12.10;;;9.18;;
70313;SDS011;71040;47.526;18.986;2024-03-02T10:29:07;11.60;;;8.73;;
70313;SDS011;71040;47.526;18.986;2024-03-02T10:34:13;10.73;;;7.95;;
70313;SDS011;71040;47.526;18.986;2024-03-02T10:39:18;10.20;;;8.20;;
70313;SDS011;71040;47.526;18.986;2024-03-02T10:44:19;11.15;;;8.70;;
70313;SDS011;71040;47.526;18.986;2024-03-02T10:49:22;9.40;;;8.02;;
70313;SDS011;71040;47.526;18.986;2024-03-02T10:54:26;9.98;;;7.90;;
70313;SDS011;71040;47.526;18.986;2024-03-02T10:59:42;9.68;;;7.88;;
70313;SDS011;71040;47.526;18.986;2024-03-02T11:04:51;9.60;;;7.55;;
70313;SDS011;71040;47.526;18.986;2024-03-02T11:09:57;10.75;;;8.02;;
70313;SDS011;71040;47.526;18.986;2024-03-02T11:15:00;11.20;;;8.43;;
70313;SDS011;71040;47.526;18.986;2024-03-02T11:20:03;9.50;;;7.35;;
70313;SDS011;71040;47.526;18.986;2024-03-02T11:25:05;10.23;;;8.23;;
70313;SDS011;71040;47.526;18.986;2024-03-02T11:35:32;8.45;;;6.95;;
70313;SDS011;71040;47.526;18.986;2024-03-02T11:40:34;9.82;;;7.47;;
70313;SDS011;71040;47.526;18.986;2024-03-02T11:45:35;9.77;;;7.57;;
70313;SDS011;71040;47.526;18.986;2024-03-02T11:50:46;8.55;;;6.72;;
70313;SDS011;71040;47.526;18.986;2024-03-02T11:55:49;8.23;;;6.78;;
70313;SDS011;71040;47.526;18.986;2024-03-02T12:00:53;9.50;;;7.10;;
70313;SDS011;71040;47.526;18.986;2024-03-02T12:05:55;7.93;;;6.38;;
70313;SDS011;71040;47.526;18.986;2024-03-02T12:10:59;8.88;;;7.07;;
70313;SDS011;71040;47.526;18.986;2024-03-02T12:16:03;8.13;;;6.05;;
70313;SDS011;71040;47.526;18.986;2024-03-02T12:21:07;8.70;;;6.35;;
70313;SDS011;71040;47.526;18.986;2024-03-02T12:26:08;8.07;;;6.30;;
70313;SDS011;71040;47.526;18.986;2024-03-02T12:31:13;7.68;;;6.15;;
70313;SDS011;71040;47.526;18.986;2024-03-02T12:36:16;7.82;;;6.30;;
70313;SDS011;71040;47.526;18.986;2024-03-02T12:41:16;7.57;;;6.10;;
70313;SDS011;71040;47.526;18.986;2024-03-02T12:46:28;6.72;;;5.20;;
70313;SDS011;71040;47.526;18.986;2024-03-02T12:51:37;7.50;;;6.00;;
70313;SDS011;71040;47.526;18.986;2024-03-02T12:56:41;6.55;;;5.55;;
70313;SDS011;71040;47.526;18.986;2024-03-02T13:06:53;6.40;;;5.50;;
70313;SDS011;71040;47.526;18.986;2024-03-02T13:11:56;6.93;;;5.40;;
70313;SDS011;71040;47.526;18.986;2024-03-02T13:16:57;6.53;;;5.35;;
70313;SDS011;71040;47.526;18.986;2024-03-02T13:22:00;6.18;;;5.10;;
70313;SDS011;71040;47.526;18.986;2024-03-02T13:27:05;6.25;;;5.50;;
70313;SDS011;71040;47.526;18.986;2024-03-02T13:32:06;7.50;;;5.93;;
70313;SDS011;71040;47.526;18.986;2024-03-02T13:37:07;6.05;;;5.45;;
70313;SDS011;71040;47.526;18.986;2024-03-02T13:42:08;6.63;;;4.82;;
70313;SDS011;71040;47.526;18.986;2024-03-02T13:47:09;5.90;;;5.05;;
70313;SDS011;71040;47.526;18.986;2024-03-02T13:52:10;6.03;;;5.13;;
70313;SDS011;71040;47.526;18.986;2024-03-02T13:57:12;6.70;;;5.32;;
70313;SDS011;71040;47.526;18.986;2024-03-02T14:02:13;6.90;;;5.43;;
70313;SDS011;71040;47.526;18.986;2024-03-02T14:07:14;5.88;;;4.95;;
70313;SDS011;71040;47.526;18.986;2024-03-02T14:12:15;6.50;;;5.33;;
70313;SDS011;71040;47.526;18.986;2024-03-02T14:17:18;6.95;;;5.55;;
70313;SDS011;71040;47.526;18.986;2024-03-02T14:22:21;5.90;;;5.03;;
70313;SDS011;71040;47.526;18.986;2024-03-02T14:27:21;7.22;;;5.47;;
70313;SDS011;71040;47.526;18.986;2024-03-02T14:32:22;5.67;;;4.53;;
70313;SDS011;71040;47.526;18.986;2024-03-02T14:37:22;6.57;;;5.50;;
70313;SDS011;71040;47.526;18.986;2024-03-02T14:42:23;6.15;;;4.70;;
70313;SDS011;71040;47.526;18.986;2024-03-02T14:47:23;6.23;;;5.00;;
70313;SDS011;71040;47.526;18.986;2024-03-02T14:52:24;7.20;;;5.28;;
70313;SDS011;71040;47.526;18.986;2024-03-02T14:57:25;7.40;;;5.07;;
70313;SDS011;71040;47.526;18.986;2024-03-02T15:02:28;6.88;;;5.53;;
70313;SDS011;71040;47.526;18.986;2024-03-02T15:07:34;6.68;;;5.22;;
70313;SDS011;71040;47.526;18.986;2024-03-02T15:12:35;6.65;;;5.00;;
70313;SDS011;71040;47.526;18.986;2024-03-02T15:17:37;7.18;;;5.07;;
70313;SDS011;71040;47.526;18.986;2024-03-02T15:22:38;5.73;;;5.00;;
70313;SDS011;71040;47.526;18.986;2024-03-02T15:27:41;6.65;;;5.38;;
70313;SDS011;71040;47.526;18.986;2024-03-02T15:32:42;6.60;;;5.13;;
70313;SDS011;71040;47.526;18.986;2024-03-02T15:37:42;6.97;;;5.43;;
70313;SDS011;71040;47.526;18.986;2024-03-02T15:42:45;8.45;;;5.55;;
70313;SDS011;71040;47.526;18.986;2024-03-02T15:47:45;8.02;;;6.28;;
70313;SDS011;71040;47.526;18.986;2024-03-02T15:52:46;8.00;;;5.53;;
70313;SDS011;71040;47.526;18.986;2024-03-02T15:57:46;7.15;;;5.40;;
70313;SDS011;71040;47.526;18.986;2024-03-02T16:02:50;8.27;;;5.80;;
70313;SDS011;71040;47.526;18.986;2024-03-02T16:07:53;8.18;;;6.07;;
70313;SDS011;71040;47.526;18.986;2024-03-02T16:12:53;8.68;;;6.05;;
70313;SDS011;71040;47.526;18.986;2024-03-02T16:17:55;8.05;;;5.90;;
70313;SDS011;71040;47.526;18.986;2024-03-02T16:23:01;7.88;;;5.88;;
70313;SDS011;71040;47.526;18.986;2024-03-02T16:28:06;8.13;;;6.00;;
70313;SDS011;71040;47.526;18.986;2024-03-02T16:33:07;8.98;;;6.50;;
70313;SDS011;71040;47.526;18.986;2024-03-02T16:38:07;9.90;;;6.63;;
70313;SDS011;71040;47.526;18.986;2024-03-02T16:43:10;8.80;;;6.40;;
70313;SDS011;71040;47.526;18.986;2024-03-02T16:48:13;8.45;;;6.30;;
70313;SDS011;71040;47.526;18.986;2024-03-02T16:53:20;9.75;;;7.03;;
70313;SDS011;71040;47.526;18.986;2024-03-02T16:58:25;9.63;;;6.60;;
70313;SDS011;71040;47.526;18.986;2024-03-02T17:03:30;10.68;;;7.60;;
70313;SDS011;71040;47.526;18.986;2024-03-02T17:08:30;10.57;;;7.20;;
70313;SDS011;71040;47.526;18.986;2024-03-02T17:13:33;11.23;;;7.57;;
70313;SDS011;71040;47.526;18.986;2024-03-02T17:18:40;11.43;;;7.53;;
70313;SDS011;71040;47.526;18.986;2024-03-02T17:23:41;11.57;;;7.68;;
70313;SDS011;71040;47.526;18.986;2024-03-02T17:28:41;12.10;;;8.03;;
70313;SDS011;71040;47.526;18.986;2024-03-02T17:33:45;11.43;;;7.85;;
70313;SDS011;71040;47.526;18.986;2024-03-02T17:38:45;12.70;;;8.67;;
70313;SDS011;71040;47.526;18.986;2024-03-02T17:43:50;12.50;;;9.05;;
70313;SDS011;71040;47.526;18.986;2024-03-02T17:48:53;13.55;;;8.95;;
70313;SDS011;71040;47.526;18.986;2024-03-02T17:53:53;11.57;;;8.50;;
70313;SDS011;71040;47.526;18.986;2024-03-02T17:58:59;12.63;;;8.38;;
70313;SDS011;71040;47.526;18.986;2024-03-02T18:03:59;12.35;;;8.48;;
70313;SDS011;71040;47.526;18.986;2024-03-02T18:09:02;13.77;;;9.75;;
70313;SDS011;71040;47.526;18.986;2024-03-02T18:14:05;12.90;;;8.48;;
70313;SDS011;71040;47.526;18.986;2024-03-02T18:19:05;12.10;;;9.00;;
70313;SDS011;71040;47.526;18.986;2024-03-02T18:24:06;14.20;;;9.43;;
70313;SDS011;71040;47.526;18.986;2024-03-02T18:29:06;13.57;;;9.10;;
70313;SDS011;71040;47.526;18.986;2024-03-02T18:34:08;13.30;;;8.70;;
70313;SDS011;71040;47.526;18.986;2024-03-02T18:39:09;14.63;;;9.20;;
70313;SDS011;71040;47.526;18.986;2024-03-02T18:44:09;12.55;;;8.95;;
70313;SDS011;71040;47.526;18.986;2024-03-02T18:49:10;11.73;;;8.67;;
70313;SDS011;71040;47.526;18.986;2024-03-02T18:54:12;12.45;;;8.65;;
70313;SDS011;71040;47.526;18.986;2024-03-02T18:59:15;12.35;;;8.85;;
70313;SDS011;71040;47.526;18.986;2024-03-02T19:04:20;12.50;;;8.68;;
70313;SDS011;71040;47.526;18.986;2024-03-02T19:09:23;13.35;;;8.60;;
70313;SDS011;71040;47.526;18.986;2024-03-02T19:14:23;12.67;;;8.73;;
70313;SDS011;71040;47.526;18.986;2024-03-02T19:19:24;11.83;;;9.13;;
70313;SDS011;71040;47.526;18.986;2024-03-02T19:24:26;11.60;;;8.30;;
70313;SDS011;71040;47.526;18.986;2024-03-02T19:29:27;13.93;;;8.52;;
70313;SDS011;71040;47.526;18.986;2024-03-02T19:34:28;11.98;;;8.27;;
70313;SDS011;71040;47.526;18.986;2024-03-02T19:39:31;11.93;;;8.57;;
70313;SDS011;71040;47.526;18.986;2024-03-02T19:44:33;12.85;;;8.38;;
70313;SDS011;71040;47.526;18.986;2024-03-02T19:49:33;11.68;;;8.05;;
70313;SDS011;71040;47.526;18.986;2024-03-02T19:54:33;12.47;;;8.53;;
70313;SDS011;71040;47.526;18.986;2024-03-02T19:59:34;10.67;;;8.07;;
70313;SDS011;71040;47.526;18.986;2024-03-02T20:04:38;10.35;;;7.35;;
70313;SDS011;71040;47.526;18.986;2024-03-02T20:09:39;10.17;;;7.13;;
70313;SDS011;71040;47.526;18.986;2024-03-02T20:14:40;10.15;;;7.22;;
70313;SDS011;71040;47.526;18.986;2024-03-02T20:19:43;9.45;;;7.05;;
70313;SDS011;71040;47.526;18.986;2024-03-02T20:24:45;11.23;;;7.80;;
70313;SDS011;71040;47.526;18.986;2024-03-02T20:29:51;10.57;;;7.88;;
70313;SDS011;71040;47.526;18.986;2024-03-02T20:34:53;9.57;;;7.45;;
70313;SDS011;71040;47.526;18.986;2024-03-02T20:39:54;10.57;;;7.50;;
70313;SDS011;71040;47.526;18.986;2024-03-02T20:44:58;8.98;;;6.88;;
70313;SDS011;71040;47.526;18.986;2024-03-02T20:50:01;9.55;;;7.20;;
70313;SDS011;71040;47.526;18.986;2024-03-02T20:55:07;9.93;;;7.65;;
70313;SDS011;71040;47.526;18.986;2024-03-02T21:00:08;10.32;;;6.78;;
70313;SDS011;71040;47.526;18.986;2024-03-02T21:05:11;8.10;;;6.05;;
70313;SDS011;71040;47.526;18.986;2024-03-02T21:10:11;9.30;;;6.78;;
70313;SDS011;71040;47.526;18.986;2024-03-02T21:15:14;9.38;;;6.63;;
70313;SDS011;71040;47.526;18.986;2024-03-02T21:20:17;7.65;;;6.45;;
70313;SDS011;71040;47.526;18.986;2024-03-02T21:25:19;9.95;;;7.30;;
70313;SDS011;71040;47.526;18.986;2024-03-02T21:30:23;9.52;;;5.90;;
70313;SDS011;71040;47.526;18.986;2024-03-02T21:35:25;8.25;;;5.75;;
70313;SDS011;71040;47.526;18.986;2024-03-02T21:40:27;7.50;;;5.82;;
70313;SDS011;71040;47.526;18.986;2024-03-02T21:45:27;7.27;;;5.87;;
70313;SDS011;71040;47.526;18.986;2024-03-02T21:50:30;7.90;;;6.13;;
70313;SDS011;71040;47.526;18.986;2024-03-02T21:55:33;8.27;;;6.22;;
70313;SDS011;71040;47.526;18.986;2024-03-02T22:00:33;8.80;;;6.22;;
70313;SDS011;71040;47.526;18.986;2024-03-02T22:05:43;7.78;;;5.90;;
70313;SDS011;71040;47.526;18.986;2024-03-02T22:10:43;7.27;;;5.43;;
70313;SDS011;71040;47.526;18.986;2024-03-02T22:15:43;8.83;;;6.00;;
70313;SDS011;71040;47.526;18.986;2024-03-02T22:20:46;7.22;;;5.70;;
70313;SDS011;71040;47.526;18.986;2024-03-02T22:25:54;8.60;;;6.38;;
70313;SDS011;71040;47.526;18.986;2024-03-02T22:31:01;8.68;;;5.70;;
70313;SDS011;71040;47.526;18.986;2024-03-02T22:36:06;8.15;;;6.13;;
70313;SDS011;71040;47.526;18.986;2024-03-02T22:41:10;8.40;;;5.78;;
70313;SDS011;71040;47.526;18.986;2024-03-02T22:46:16;6.97;;;5.18;;
70313;SDS011;71040;47.526;18.986;2024-03-02T22:51:23;7.65;;;5.15;;
70313;SDS011;71040;47.526;18.986;2024-03-02T22:56:26;6.78;;;4.95;;
70313;SDS011;71040;47.526;18.986;2024-03-02T23:01:27;8.30;;;6.23;;
70313;SDS011;71040;47.526;18.986;2024-03-02T23:06:29;5.88;;;4.82;;
70313;SDS011;71040;47.526;18.986;2024-03-02T23:11:30;7.27;;;4.90;;
70313;SDS011;71040;47.526;18.986;2024-03-02T23:16:30;6.72;;;4.90;;
70313;SDS011;71040;47.526;18.986;2024-03-02T23:21:34;8.25;;;5.43;;
70313;SDS011;71040;47.526;18.986;2024-03-02T23:26:34;6.87;;;5.33;;
70313;SDS011;71040;47.526;18.986;2024-03-02T23:31:39;6.55;;;5.22;;
70313;SDS011;71040;47.526;18.986;2024-03-02T23:36:39;6.38;;;5.07;;
70313;SDS011;71040;47.526;18.986;2024-03-02T23:41:39;7.07;;;5.03;;
70313;SDS011;71040;47.526;18.986;2024-03-02T23:46:45;6.72;;;4.97;;
70313;SDS011;71040;47.526;18.986;2024-03-02T23:51:45;6.75;;;4.93;;
70313;SDS011;71040;47.526;18.986;2024-03-02T23:56:45;7.23;;;5.03;;
